Uliastai, China
Current Conditions -  °F | °C
As of 12:00 AM on Monday 24 Nov 2014 (Local Time) from ZBAA Reporting Station
Haze Haze  
Wind Chill: 23°   Ceiling: Unl
Heat Index: 28°   Visibility: 1.5mi
Dew Point: 28°   Wind: 4mph
Humidity: 100%   Direction: 350°N
Pressure: 30.33"   Gusts: NA
Location:  45.52°N, 116.97°E
Report Text: ZBAA 231600Z 35002MPS 2500 R01/0900V1500NR36R/P2000UR36L/P2000N BR NSC M02/M02 Q1027 BECMG TL1640 3500
Loading
Personal Weather Stations






























Interactive Weather Map New forecast layout! Learn more

10-Day Weather Forecast

Advertisements
Track Severe Weather on mobile